sensor_id;sensor_type;location;lat;lon;timestamp;P1;durP1;ratioP1;P2;durP2;ratioP2
70367;SDS011;57789;53.868;10.728;2023-06-24T00:02:14;14.77;;;8.07;;
70367;SDS011;57789;53.868;10.728;2023-06-24T00:04:40;9.20;;;6.80;;
70367;SDS011;57789;53.868;10.728;2023-06-24T00:07:06;11.30;;;7.83;;
70367;SDS011;57789;53.868;10.728;2023-06-24T00:09:32;9.33;;;7.20;;
70367;SDS011;57789;53.868;10.728;2023-06-24T00:11:58;9.90;;;7.70;;
70367;SDS011;57789;53.868;10.728;2023-06-24T00:14:24;10.67;;;7.20;;
70367;SDS011;57789;53.868;10.728;2023-06-24T00:16:55;8.27;;;6.60;;
70367;SDS011;57789;53.868;10.728;2023-06-24T00:19:21;9.80;;;7.93;;
70367;SDS011;57789;53.868;10.728;2023-06-24T00:21:49;14.63;;;7.60;;
70367;SDS011;57789;53.868;10.728;2023-06-24T00:24:19;10.00;;;6.63;;
70367;SDS011;57789;53.868;10.728;2023-06-24T00:26:53;11.10;;;7.67;;
70367;SDS011;57789;53.868;10.728;2023-06-24T00:29:19;12.00;;;6.90;;
70367;SDS011;57789;53.868;10.728;2023-06-24T00:31:45;10.57;;;6.90;;
70367;SDS011;57789;53.868;10.728;2023-06-24T00:34:13;9.13;;;6.97;;
70367;SDS011;57789;53.868;10.728;2023-06-24T00:36:39;10.87;;;7.13;;
70367;SDS011;57789;53.868;10.728;2023-06-24T00:39:05;11.13;;;6.03;;
70367;SDS011;57789;53.868;10.728;2023-06-24T00:41:33;10.10;;;5.97;;
70367;SDS011;57789;53.868;10.728;2023-06-24T00:43:59;12.20;;;5.97;;
70367;SDS011;57789;53.868;10.728;2023-06-24T00:46:26;10.70;;;7.47;;
70367;SDS011;57789;53.868;10.728;2023-06-24T00:48:54;12.80;;;6.67;;
70367;SDS011;57789;53.868;10.728;2023-06-24T00:51:20;8.20;;;7.03;;
70367;SDS011;57789;53.868;10.728;2023-06-24T00:53:51;8.43;;;6.73;;
70367;SDS011;57789;53.868;10.728;2023-06-24T00:56:18;8.37;;;5.60;;
70367;SDS011;57789;53.868;10.728;2023-06-24T00:58:47;13.60;;;6.87;;
70367;SDS011;57789;53.868;10.728;2023-06-24T01:01:15;9.77;;;6.10;;
70367;SDS011;57789;53.868;10.728;2023-06-24T01:03:42;8.07;;;6.40;;
70367;SDS011;57789;53.868;10.728;2023-06-24T01:06:08;10.33;;;5.83;;
70367;SDS011;57789;53.868;10.728;2023-06-24T01:08:35;11.40;;;6.33;;
70367;SDS011;57789;53.868;10.728;2023-06-24T01:11:01;13.10;;;6.90;;
70367;SDS011;57789;53.868;10.728;2023-06-24T01:13:26;12.40;;;6.37;;
70367;SDS011;57789;53.868;10.728;2023-06-24T01:15:52;6.97;;;5.43;;
70367;SDS011;57789;53.868;10.728;2023-06-24T01:18:29;13.57;;;6.83;;
70367;SDS011;57789;53.868;10.728;2023-06-24T01:32:06;12.23;;;6.60;;
70367;SDS011;57789;53.868;10.728;2023-06-24T01:34:50;12.30;;;7.03;;
70367;SDS011;57789;53.868;10.728;2023-06-24T01:42:38;15.57;;;6.13;;
70367;SDS011;57789;53.868;10.728;2023-06-24T01:45:10;11.60;;;6.83;;
70367;SDS011;57789;53.868;10.728;2023-06-24T01:47:40;8.20;;;6.37;;
70367;SDS011;57789;53.868;10.728;2023-06-24T01:50:10;10.80;;;7.33;;
70367;SDS011;57789;53.868;10.728;2023-06-24T01:52:37;12.90;;;7.57;;
70367;SDS011;57789;53.868;10.728;2023-06-24T01:55:09;9.87;;;7.50;;
70367;SDS011;57789;53.868;10.728;2023-06-24T01:57:36;12.97;;;8.60;;
70367;SDS011;57789;53.868;10.728;2023-06-24T02:00:03;11.00;;;8.57;;
70367;SDS011;57789;53.868;10.728;2023-06-24T02:02:31;15.73;;;7.60;;
70367;SDS011;57789;53.868;10.728;2023-06-24T02:04:58;16.50;;;9.03;;
70367;SDS011;57789;53.868;10.728;2023-06-24T02:07:26;9.93;;;7.50;;
70367;SDS011;57789;53.868;10.728;2023-06-24T02:09:55;19.03;;;8.77;;
70367;SDS011;57789;53.868;10.728;2023-06-24T02:12:23;10.57;;;7.20;;
70367;SDS011;57789;53.868;10.728;2023-06-24T02:14:51;9.67;;;6.47;;
70367;SDS011;57789;53.868;10.728;2023-06-24T02:17:19;12.60;;;7.23;;
70367;SDS011;57789;53.868;10.728;2023-06-24T02:19:46;11.80;;;8.27;;
70367;SDS011;57789;53.868;10.728;2023-06-24T02:22:13;10.93;;;7.93;;
70367;SDS011;57789;53.868;10.728;2023-06-24T02:24:40;12.37;;;7.63;;
70367;SDS011;57789;53.868;10.728;2023-06-24T02:27:07;11.23;;;7.63;;
70367;SDS011;57789;53.868;10.728;2023-06-24T02:29:33;10.90;;;7.30;;
70367;SDS011;57789;53.868;10.728;2023-06-24T02:32:01;12.10;;;7.83;;
70367;SDS011;57789;53.868;10.728;2023-06-24T02:34:27;13.20;;;7.70;;
70367;SDS011;57789;53.868;10.728;2023-06-24T02:36:54;10.03;;;8.30;;
70367;SDS011;57789;53.868;10.728;2023-06-24T02:39:19;14.07;;;7.63;;
70367;SDS011;57789;53.868;10.728;2023-06-24T02:41:45;9.70;;;7.60;;
70367;SDS011;57789;53.868;10.728;2023-06-24T02:44:13;13.30;;;8.67;;
70367;SDS011;57789;53.868;10.728;2023-06-24T02:46:38;10.70;;;7.63;;
70367;SDS011;57789;53.868;10.728;2023-06-24T02:49:06;14.90;;;7.50;;
70367;SDS011;57789;53.868;10.728;2023-06-24T02:51:34;15.30;;;8.60;;
70367;SDS011;57789;53.868;10.728;2023-06-24T02:54:01;12.53;;;7.30;;
70367;SDS011;57789;53.868;10.728;2023-06-24T02:56:28;11.87;;;6.97;;
70367;SDS011;57789;53.868;10.728;2023-06-24T02:58:54;10.30;;;8.60;;
70367;SDS011;57789;53.868;10.728;2023-06-24T03:01:20;14.73;;;10.30;;
70367;SDS011;57789;53.868;10.728;2023-06-24T03:03:53;10.93;;;7.60;;
70367;SDS011;57789;53.868;10.728;2023-06-24T03:06:20;14.00;;;8.40;;
70367;SDS011;57789;53.868;10.728;2023-06-24T03:08:47;15.17;;;8.57;;
70367;SDS011;57789;53.868;10.728;2023-06-24T03:11:14;12.57;;;7.80;;
70367;SDS011;57789;53.868;10.728;2023-06-24T03:13:41;11.20;;;8.53;;
70367;SDS011;57789;53.868;10.728;2023-06-24T03:16:07;11.40;;;8.60;;
70367;SDS011;57789;53.868;10.728;2023-06-24T03:18:43;16.13;;;8.80;;
70367;SDS011;57789;53.868;10.728;2023-06-24T03:21:09;19.60;;;8.70;;
70367;SDS011;57789;53.868;10.728;2023-06-24T03:23:35;13.90;;;8.30;;
70367;SDS011;57789;53.868;10.728;2023-06-24T03:26:01;18.57;;;9.57;;
70367;SDS011;57789;53.868;10.728;2023-06-24T03:28:30;18.47;;;8.83;;
70367;SDS011;57789;53.868;10.728;2023-06-24T03:30:57;12.17;;;8.37;;
70367;SDS011;57789;53.868;10.728;2023-06-24T03:33:25;13.20;;;9.20;;
70367;SDS011;57789;53.868;10.728;2023-06-24T03:35:52;12.50;;;7.70;;
70367;SDS011;57789;53.868;10.728;2023-06-24T03:38:21;13.87;;;7.93;;
70367;SDS011;57789;53.868;10.728;2023-06-24T03:40:47;13.87;;;8.20;;
70367;SDS011;57789;53.868;10.728;2023-06-24T03:43:13;14.17;;;8.43;;
70367;SDS011;57789;53.868;10.728;2023-06-24T03:45:39;10.40;;;8.40;;
70367;SDS011;57789;53.868;10.728;2023-06-24T03:48:05;11.50;;;7.60;;
70367;SDS011;57789;53.868;10.728;2023-06-24T03:50:31;16.00;;;9.17;;
70367;SDS011;57789;53.868;10.728;2023-06-24T03:52:57;11.37;;;8.50;;
70367;SDS011;57789;53.868;10.728;2023-06-24T03:55:22;13.40;;;7.57;;
70367;SDS011;57789;53.868;10.728;2023-06-24T03:57:48;13.73;;;8.23;;
70367;SDS011;57789;53.868;10.728;2023-06-24T04:00:14;17.10;;;9.17;;
70367;SDS011;57789;53.868;10.728;2023-06-24T04:02:45;12.97;;;7.77;;
70367;SDS011;57789;53.868;10.728;2023-06-24T04:05:11;13.33;;;7.93;;
70367;SDS011;57789;53.868;10.728;2023-06-24T04:07:38;15.10;;;7.57;;
70367;SDS011;57789;53.868;10.728;2023-06-24T04:10:04;12.83;;;7.90;;
70367;SDS011;57789;53.868;10.728;2023-06-24T04:12:37;13.43;;;7.17;;
70367;SDS011;57789;53.868;10.728;2023-06-24T04:15:03;19.63;;;7.60;;
70367;SDS011;57789;53.868;10.728;2023-06-24T04:17:30;10.03;;;7.67;;
70367;SDS011;57789;53.868;10.728;2023-06-24T04:19:56;12.27;;;8.10;;
70367;SDS011;57789;53.868;10.728;2023-06-24T04:22:24;10.87;;;6.90;;
70367;SDS011;57789;53.868;10.728;2023-06-24T04:24:50;13.10;;;7.00;;
70367;SDS011;57789;53.868;10.728;2023-06-24T04:27:16;21.07;;;8.73;;
70367;SDS011;57789;53.868;10.728;2023-06-24T04:29:43;14.30;;;8.20;;
70367;SDS011;57789;53.868;10.728;2023-06-24T04:32:09;12.80;;;8.13;;
70367;SDS011;57789;53.868;10.728;2023-06-24T04:34:35;11.47;;;8.10;;
70367;SDS011;57789;53.868;10.728;2023-06-24T04:37:05;16.03;;;7.27;;
70367;SDS011;57789;53.868;10.728;2023-06-24T04:39:31;10.17;;;7.90;;
70367;SDS011;57789;53.868;10.728;2023-06-24T04:41:57;11.60;;;6.50;;
70367;SDS011;57789;53.868;10.728;2023-06-24T04:44:23;12.10;;;7.83;;
70367;SDS011;57789;53.868;10.728;2023-06-24T04:46:48;21.43;;;8.10;;
70367;SDS011;57789;53.868;10.728;2023-06-24T04:49:14;12.10;;;7.50;;
70367;SDS011;57789;53.868;10.728;2023-06-24T04:51:40;17.93;;;7.90;;
70367;SDS011;57789;53.868;10.728;2023-06-24T04:54:06;9.40;;;7.63;;
70367;SDS011;57789;53.868;10.728;2023-06-24T04:56:32;9.40;;;6.60;;
70367;SDS011;57789;53.868;10.728;2023-06-24T04:58:59;11.90;;;7.70;;
70367;SDS011;57789;53.868;10.728;2023-06-24T05:01:25;13.77;;;7.23;;
70367;SDS011;57789;53.868;10.728;2023-06-24T05:03:51;14.47;;;8.00;;
70367;SDS011;57789;53.868;10.728;2023-06-24T05:06:17;13.63;;;7.30;;
70367;SDS011;57789;53.868;10.728;2023-06-24T05:08:43;9.63;;;6.50;;
70367;SDS011;57789;53.868;10.728;2023-06-24T05:11:09;8.53;;;6.50;;
70367;SDS011;57789;53.868;10.728;2023-06-24T05:13:35;10.80;;;7.03;;
70367;SDS011;57789;53.868;10.728;2023-06-24T05:16:01;17.27;;;7.40;;
70367;SDS011;57789;53.868;10.728;2023-06-24T05:18:26;9.97;;;6.80;;
70367;SDS011;57789;53.868;10.728;2023-06-24T05:20:52;12.23;;;7.17;;
70367;SDS011;57789;53.868;10.728;2023-06-24T05:23:18;11.70;;;7.47;;
70367;SDS011;57789;53.868;10.728;2023-06-24T05:25:44;14.17;;;7.07;;
70367;SDS011;57789;53.868;10.728;2023-06-24T05:28:10;13.67;;;6.90;;
70367;SDS011;57789;53.868;10.728;2023-06-24T05:30:35;15.57;;;6.53;;
70367;SDS011;57789;53.868;10.728;2023-06-24T05:33:01;10.03;;;6.43;;
70367;SDS011;57789;53.868;10.728;2023-06-24T05:35:27;8.73;;;5.90;;
70367;SDS011;57789;53.868;10.728;2023-06-24T05:37:53;17.33;;;6.30;;
70367;SDS011;57789;53.868;10.728;2023-06-24T05:40:19;12.53;;;6.07;;
70367;SDS011;57789;53.868;10.728;2023-06-24T05:42:44;9.70;;;5.60;;
70367;SDS011;57789;53.868;10.728;2023-06-24T05:45:10;11.53;;;6.57;;
70367;SDS011;57789;53.868;10.728;2023-06-24T05:47:36;11.67;;;5.63;;
70367;SDS011;57789;53.868;10.728;2023-06-24T05:50:03;8.67;;;5.60;;
70367;SDS011;57789;53.868;10.728;2023-06-24T05:52:29;10.73;;;6.10;;
70367;SDS011;57789;53.868;10.728;2023-06-24T05:54:55;11.13;;;6.20;;
70367;SDS011;57789;53.868;10.728;2023-06-24T05:57:21;10.07;;;5.13;;
70367;SDS011;57789;53.868;10.728;2023-06-24T05:59:47;8.53;;;5.17;;
70367;SDS011;57789;53.868;10.728;2023-06-24T06:02:13;9.97;;;4.80;;
70367;SDS011;57789;53.868;10.728;2023-06-24T06:04:39;13.00;;;6.30;;
70367;SDS011;57789;53.868;10.728;2023-06-24T06:07:05;6.97;;;5.20;;
70367;SDS011;57789;53.868;10.728;2023-06-24T06:09:33;11.50;;;5.00;;
70367;SDS011;57789;53.868;10.728;2023-06-24T06:11:59;8.00;;;5.20;;
70367;SDS011;57789;53.868;10.728;2023-06-24T06:14:24;7.70;;;4.80;;
70367;SDS011;57789;53.868;10.728;2023-06-24T06:16:50;11.90;;;5.40;;
70367;SDS011;57789;53.868;10.728;2023-06-24T06:19:16;9.10;;;5.37;;
70367;SDS011;57789;53.868;10.728;2023-06-24T06:21:42;7.10;;;4.23;;
70367;SDS011;57789;53.868;10.728;2023-06-24T06:24:07;8.37;;;5.20;;
70367;SDS011;57789;53.868;10.728;2023-06-24T06:26:33;5.60;;;4.50;;
70367;SDS011;57789;53.868;10.728;2023-06-24T06:28:59;8.63;;;4.47;;
70367;SDS011;57789;53.868;10.728;2023-06-24T06:31:25;8.23;;;5.20;;
70367;SDS011;57789;53.868;10.728;2023-06-24T06:33:51;13.10;;;5.37;;
70367;SDS011;57789;53.868;10.728;2023-06-24T06:36:17;12.77;;;4.90;;
70367;SDS011;57789;53.868;10.728;2023-06-24T06:38:44;12.83;;;4.83;;
70367;SDS011;57789;53.868;10.728;2023-06-24T06:41:09;8.53;;;4.17;;
70367;SDS011;57789;53.868;10.728;2023-06-24T06:43:35;16.57;;;5.23;;
70367;SDS011;57789;53.868;10.728;2023-06-24T06:46:01;16.03;;;5.33;;
70367;SDS011;57789;53.868;10.728;2023-06-24T06:48:27;8.90;;;4.87;;
70367;SDS011;57789;53.868;10.728;2023-06-24T06:50:52;13.03;;;4.80;;
70367;SDS011;57789;53.868;10.728;2023-06-24T06:53:18;10.50;;;5.77;;
70367;SDS011;57789;53.868;10.728;2023-06-24T06:55:44;5.43;;;3.90;;
70367;SDS011;57789;53.868;10.728;2023-06-24T06:58:10;9.50;;;5.30;;
70367;SDS011;57789;53.868;10.728;2023-06-24T07:00:37;9.37;;;4.27;;
70367;SDS011;57789;53.868;10.728;2023-06-24T07:03:03;4.97;;;4.37;;
70367;SDS011;57789;53.868;10.728;2023-06-24T07:05:29;10.30;;;4.80;;
70367;SDS011;57789;53.868;10.728;2023-06-24T07:07:54;9.77;;;4.50;;
70367;SDS011;57789;53.868;10.728;2023-06-24T07:10:20;10.43;;;4.60;;
70367;SDS011;57789;53.868;10.728;2023-06-24T07:12:46;7.30;;;5.03;;
70367;SDS011;57789;53.868;10.728;2023-06-24T07:15:12;10.57;;;5.40;;
70367;SDS011;57789;53.868;10.728;2023-06-24T07:17:38;8.07;;;4.60;;
70367;SDS011;57789;53.868;10.728;2023-06-24T07:20:04;11.30;;;5.20;;
70367;SDS011;57789;53.868;10.728;2023-06-24T07:22:30;8.20;;;5.30;;
70367;SDS011;57789;53.868;10.728;2023-06-24T07:24:56;7.07;;;4.30;;
70367;SDS011;57789;53.868;10.728;2023-06-24T07:27:22;25.97;;;6.63;;
70367;SDS011;57789;53.868;10.728;2023-06-24T07:29:49;6.57;;;4.43;;
70367;SDS011;57789;53.868;10.728;2023-06-24T07:32:15;9.20;;;4.97;;
70367;SDS011;57789;53.868;10.728;2023-06-24T07:34:41;12.50;;;5.07;;
70367;SDS011;57789;53.868;10.728;2023-06-24T07:37:07;15.23;;;4.53;;
70367;SDS011;57789;53.868;10.728;2023-06-24T07:39:33;9.70;;;4.83;;
70367;SDS011;57789;53.868;10.728;2023-06-24T07:41:59;6.00;;;3.77;;
70367;SDS011;57789;53.868;10.728;2023-06-24T07:44:25;6.77;;;4.60;;
70367;SDS011;57789;53.868;10.728;2023-06-24T07:46:51;5.97;;;3.60;;
70367;SDS011;57789;53.868;10.728;2023-06-24T07:49:17;5.83;;;3.60;;
70367;SDS011;57789;53.868;10.728;2023-06-24T07:51:43;4.97;;;3.20;;
70367;SDS011;57789;53.868;10.728;2023-06-24T07:54:10;8.43;;;3.60;;
70367;SDS011;57789;53.868;10.728;2023-06-24T07:56:36;6.13;;;3.27;;
70367;SDS011;57789;53.868;10.728;2023-06-24T07:59:02;9.47;;;3.20;;
70367;SDS011;57789;53.868;10.728;2023-06-24T08:01:28;3.33;;;2.80;;
70367;SDS011;57789;53.868;10.728;2023-06-24T08:03:54;18.30;;;9.80;;
70367;SDS011;57789;53.868;10.728;2023-06-24T08:06:20;32.90;;;21.03;;
70367;SDS011;57789;53.868;10.728;2023-06-24T08:08:45;5.67;;;3.80;;
70367;SDS011;57789;53.868;10.728;2023-06-24T08:11:11;5.50;;;3.60;;
70367;SDS011;57789;53.868;10.728;2023-06-24T08:13:38;5.60;;;3.40;;
70367;SDS011;57789;53.868;10.728;2023-06-24T08:16:04;6.47;;;3.70;;
70367;SDS011;57789;53.868;10.728;2023-06-24T08:18:30;4.53;;;3.37;;
70367;SDS011;57789;53.868;10.728;2023-06-24T08:20:56;3.70;;;3.27;;
70367;SDS011;57789;53.868;10.728;2023-06-24T08:23:22;4.90;;;2.97;;
70367;SDS011;57789;53.868;10.728;2023-06-24T08:25:48;3.80;;;3.00;;
70367;SDS011;57789;53.868;10.728;2023-06-24T08:28:14;9.93;;;3.50;;
70367;SDS011;57789;53.868;10.728;2023-06-24T08:30:39;3.20;;;2.90;;
70367;SDS011;57789;53.868;10.728;2023-06-24T08:33:05;9.50;;;3.07;;
70367;SDS011;57789;53.868;10.728;2023-06-24T08:35:31;6.30;;;3.20;;
70367;SDS011;57789;53.868;10.728;2023-06-24T08:37:57;7.80;;;3.40;;
70367;SDS011;57789;53.868;10.728;2023-06-24T08:40:22;5.57;;;3.30;;
70367;SDS011;57789;53.868;10.728;2023-06-24T08:42:48;7.33;;;3.77;;
70367;SDS011;57789;53.868;10.728;2023-06-24T08:45:14;4.60;;;2.77;;
70367;SDS011;57789;53.868;10.728;2023-06-24T08:47:41;4.73;;;3.10;;
70367;SDS011;57789;53.868;10.728;2023-06-24T08:50:12;8.10;;;3.20;;
70367;SDS011;57789;53.868;10.728;2023-06-24T08:52:40;4.33;;;2.93;;
70367;SDS011;57789;53.868;10.728;2023-06-24T08:55:10;5.70;;;3.07;;
70367;SDS011;57789;53.868;10.728;2023-06-24T08:57:39;6.50;;;4.07;;
70367;SDS011;57789;53.868;10.728;2023-06-24T09:00:06;5.23;;;2.90;;
70367;SDS011;57789;53.868;10.728;2023-06-24T09:02:35;4.57;;;3.10;;
70367;SDS011;57789;53.868;10.728;2023-06-24T09:05:06;7.90;;;3.73;;
70367;SDS011;57789;53.868;10.728;2023-06-24T09:07:34;10.50;;;3.33;;
70367;SDS011;57789;53.868;10.728;2023-06-24T09:10:00;7.27;;;3.63;;
70367;SDS011;57789;53.868;10.728;2023-06-24T09:12:26;6.03;;;3.40;;
70367;SDS011;57789;53.868;10.728;2023-06-24T09:14:56;4.33;;;3.17;;
70367;SDS011;57789;53.868;10.728;2023-06-24T09:17:22;6.63;;;3.63;;
70367;SDS011;57789;53.868;10.728;2023-06-24T09:19:48;5.03;;;3.40;;
70367;SDS011;57789;53.868;10.728;2023-06-24T09:22:15;7.03;;;3.70;;
70367;SDS011;57789;53.868;10.728;2023-06-24T09:24:43;5.97;;;3.40;;
70367;SDS011;57789;53.868;10.728;2023-06-24T09:27:12;5.47;;;3.43;;
70367;SDS011;57789;53.868;10.728;2023-06-24T09:29:39;4.97;;;3.50;;
70367;SDS011;57789;53.868;10.728;2023-06-24T09:32:07;7.83;;;4.20;;
70367;SDS011;57789;53.868;10.728;2023-06-24T09:34:33;7.10;;;4.07;;
70367;SDS011;57789;53.868;10.728;2023-06-24T09:37:00;3.93;;;3.33;;
70367;SDS011;57789;53.868;10.728;2023-06-24T09:39:26;4.40;;;3.10;;
70367;SDS011;57789;53.868;10.728;2023-06-24T09:41:57;12.53;;;4.50;;
70367;SDS011;57789;53.868;10.728;2023-06-24T09:44:27;5.90;;;4.03;;
70367;SDS011;57789;53.868;10.728;2023-06-24T09:46:54;4.83;;;3.23;;
70367;SDS011;57789;53.868;10.728;2023-06-24T09:49:23;5.23;;;3.23;;
70367;SDS011;57789;53.868;10.728;2023-06-24T09:51:51;6.97;;;3.27;;
70367;SDS011;57789;53.868;10.728;2023-06-24T09:54:27;12.43;;;4.10;;
70367;SDS011;57789;53.868;10.728;2023-06-24T09:56:54;14.83;;;3.70;;
70367;SDS011;57789;53.868;10.728;2023-06-24T09:59:23;8.43;;;3.37;;
70367;SDS011;57789;53.868;10.728;2023-06-24T10:01:52;3.73;;;2.83;;
70367;SDS011;57789;53.868;10.728;2023-06-24T10:04:20;5.50;;;3.17;;
70367;SDS011;57789;53.868;10.728;2023-06-24T10:06:49;4.03;;;2.37;;
70367;SDS011;57789;53.868;10.728;2023-06-24T10:09:16;7.13;;;3.00;;
70367;SDS011;57789;53.868;10.728;2023-06-24T10:11:46;5.70;;;3.30;;
70367;SDS011;57789;53.868;10.728;2023-06-24T10:14:12;6.37;;;2.30;;
70367;SDS011;57789;53.868;10.728;2023-06-24T10:16:41;5.07;;;3.10;;
70367;SDS011;57789;53.868;10.728;2023-06-24T10:19:09;3.50;;;2.60;;
70367;SDS011;57789;53.868;10.728;2023-06-24T10:21:44;4.73;;;2.90;;
70367;SDS011;57789;53.868;10.728;2023-06-24T10:24:14;4.80;;;2.70;;
70367;SDS011;57789;53.868;10.728;2023-06-24T10:27:04;6.70;;;3.70;;
70367;SDS011;57789;53.868;10.728;2023-06-24T10:29:34;5.33;;;2.90;;
70367;SDS011;57789;53.868;10.728;2023-06-24T10:32:05;3.87;;;2.70;;
70367;SDS011;57789;53.868;10.728;2023-06-24T10:44:58;5.43;;;4.33;;
70367;SDS011;57789;53.868;10.728;2023-06-24T10:47:25;5.57;;;3.00;;
70367;SDS011;57789;53.868;10.728;2023-06-24T10:49:53;5.17;;;3.03;;
70367;SDS011;57789;53.868;10.728;2023-06-24T10:52:19;3.30;;;2.77;;
70367;SDS011;57789;53.868;10.728;2023-06-24T10:54:46;4.30;;;3.10;;
70367;SDS011;57789;53.868;10.728;2023-06-24T10:57:13;7.00;;;3.13;;
70367;SDS011;57789;53.868;10.728;2023-06-24T11:02:07;7.00;;;2.80;;
70367;SDS011;57789;53.868;10.728;2023-06-24T11:05:09;3.30;;;2.70;;
70367;SDS011;57789;53.868;10.728;2023-06-24T11:07:30;4.80;;;2.83;;
70367;SDS011;57789;53.868;10.728;2023-06-24T11:12:39;2.63;;;2.20;;
70367;SDS011;57789;53.868;10.728;2023-06-24T11:15:06;3.03;;;2.50;;
70367;SDS011;57789;53.868;10.728;2023-06-24T11:17:35;4.87;;;3.23;;
70367;SDS011;57789;53.868;10.728;2023-06-24T11:20:06;10.00;;;5.30;;
70367;SDS011;57789;53.868;10.728;2023-06-24T11:22:36;6.30;;;3.40;;
70367;SDS011;57789;53.868;10.728;2023-06-24T11:25:02;11.50;;;5.23;;
70367;SDS011;57789;53.868;10.728;2023-06-24T11:27:29;5.77;;;3.60;;
70367;SDS011;57789;53.868;10.728;2023-06-24T11:29:57;3.60;;;2.43;;
70367;SDS011;57789;53.868;10.728;2023-06-24T11:32:34;6.60;;;3.63;;
70367;SDS011;57789;53.868;10.728;2023-06-24T11:35:01;4.10;;;3.13;;
70367;SDS011;57789;53.868;10.728;2023-06-24T11:37:30;5.93;;;3.53;;
70367;SDS011;57789;53.868;10.728;2023-06-24T11:40:00;3.77;;;2.83;;
70367;SDS011;57789;53.868;10.728;2023-06-24T11:42:31;4.67;;;3.07;;
70367;SDS011;57789;53.868;10.728;2023-06-24T11:45:00;6.50;;;4.10;;
70367;SDS011;57789;53.868;10.728;2023-06-24T11:47:29;6.73;;;4.13;;
70367;SDS011;57789;53.868;10.728;2023-06-24T11:49:57;7.97;;;4.60;;
70367;SDS011;57789;53.868;10.728;2023-06-24T11:52:42;7.57;;;4.00;;
70367;SDS011;57789;53.868;10.728;2023-06-24T12:02:54;6.20;;;5.13;;
70367;SDS011;57789;53.868;10.728;2023-06-24T12:05:25;4.43;;;3.60;;
70367;SDS011;57789;53.868;10.728;2023-06-24T12:08:00;7.37;;;3.43;;
70367;SDS011;57789;53.868;10.728;2023-06-24T12:10:36;4.10;;;3.70;;
70367;SDS011;57789;53.868;10.728;2023-06-24T12:13:03;5.63;;;3.57;;
70367;SDS011;57789;53.868;10.728;2023-06-24T12:15:34;3.80;;;2.60;;
70367;SDS011;57789;53.868;10.728;2023-06-24T12:18:00;4.57;;;3.07;;
70367;SDS011;57789;53.868;10.728;2023-06-24T12:20:27;4.03;;;3.57;;
70367;SDS011;57789;53.868;10.728;2023-06-24T12:22:53;5.83;;;3.30;;
70367;SDS011;57789;53.868;10.728;2023-06-24T12:25:19;4.43;;;3.20;;
70367;SDS011;57789;53.868;10.728;2023-06-24T12:27:45;3.87;;;3.00;;
70367;SDS011;57789;53.868;10.728;2023-06-24T12:30:11;6.73;;;3.73;;
70367;SDS011;57789;53.868;10.728;2023-06-24T12:32:37;6.80;;;3.30;;
70367;SDS011;57789;53.868;10.728;2023-06-24T12:35:06;5.67;;;3.57;;
70367;SDS011;57789;53.868;10.728;2023-06-24T12:37:35;6.23;;;2.80;;
70367;SDS011;57789;53.868;10.728;2023-06-24T12:40:01;7.70;;;3.90;;
70367;SDS011;57789;53.868;10.728;2023-06-24T12:42:27;4.10;;;3.30;;
70367;SDS011;57789;53.868;10.728;2023-06-24T12:44:53;9.20;;;3.90;;
70367;SDS011;57789;53.868;10.728;2023-06-24T12:47:20;6.17;;;3.43;;
70367;SDS011;57789;53.868;10.728;2023-06-24T12:49:46;8.13;;;3.40;;
70367;SDS011;57789;53.868;10.728;2023-06-24T12:52:13;5.60;;;2.87;;
70367;SDS011;57789;53.868;10.728;2023-06-24T12:54:39;9.53;;;3.63;;
70367;SDS011;57789;53.868;10.728;2023-06-24T12:57:06;4.77;;;2.80;;
70367;SDS011;57789;53.868;10.728;2023-06-24T12:59:31;6.30;;;3.63;;
70367;SDS011;57789;53.868;10.728;2023-06-24T13:01:58;5.43;;;4.17;;
70367;SDS011;57789;53.868;10.728;2023-06-24T13:04:24;4.30;;;3.50;;
70367;SDS011;57789;53.868;10.728;2023-06-24T13:06:52;4.77;;;3.00;;
70367;SDS011;57789;53.868;10.728;2023-06-24T13:09:18;8.57;;;3.47;;
70367;SDS011;57789;53.868;10.728;2023-06-24T13:11:45;4.87;;;3.27;;
70367;SDS011;57789;53.868;10.728;2023-06-24T13:14:12;7.07;;;4.13;;
70367;SDS011;57789;53.868;10.728;2023-06-24T13:16:38;5.77;;;3.33;;
70367;SDS011;57789;53.868;10.728;2023-06-24T13:19:04;4.50;;;3.63;;
70367;SDS011;57789;53.868;10.728;2023-06-24T13:21:30;6.33;;;3.67;;
70367;SDS011;57789;53.868;10.728;2023-06-24T13:23:57;3.60;;;3.30;;
70367;SDS011;57789;53.868;10.728;2023-06-24T13:26:23;4.20;;;2.87;;
70367;SDS011;57789;53.868;10.728;2023-06-24T13:28:49;8.03;;;3.67;;
70367;SDS011;57789;53.868;10.728;2023-06-24T13:31:15;3.63;;;2.97;;
70367;SDS011;57789;53.868;10.728;2023-06-24T13:33:41;6.43;;;3.50;;
70367;SDS011;57789;53.868;10.728;2023-06-24T13:36:08;3.63;;;3.33;;
70367;SDS011;57789;53.868;10.728;2023-06-24T13:38:38;3.57;;;2.90;;
70367;SDS011;57789;53.868;10.728;2023-06-24T13:41:04;5.90;;;3.40;;
70367;SDS011;57789;53.868;10.728;2023-06-24T13:43:30;7.40;;;3.53;;
70367;SDS011;57789;53.868;10.728;2023-06-24T13:45:56;5.40;;;3.30;;
70367;SDS011;57789;53.868;10.728;2023-06-24T13:48:25;5.83;;;3.53;;
70367;SDS011;57789;53.868;10.728;2023-06-24T13:50:53;3.53;;;3.07;;
70367;SDS011;57789;53.868;10.728;2023-06-24T13:53:19;5.70;;;3.33;;
70367;SDS011;57789;53.868;10.728;2023-06-24T13:55:46;4.63;;;3.17;;
70367;SDS011;57789;53.868;10.728;2023-06-24T13:58:11;5.00;;;3.57;;
70367;SDS011;57789;53.868;10.728;2023-06-24T14:00:37;4.30;;;3.23;;
70367;SDS011;57789;53.868;10.728;2023-06-24T14:03:03;8.93;;;3.70;;
70367;SDS011;57789;53.868;10.728;2023-06-24T14:05:28;5.80;;;3.50;;
70367;SDS011;57789;53.868;10.728;2023-06-24T14:07:54;7.57;;;3.77;;
70367;SDS011;57789;53.868;10.728;2023-06-24T14:10:20;6.03;;;3.77;;
70367;SDS011;57789;53.868;10.728;2023-06-24T14:12:46;5.67;;;3.90;;
70367;SDS011;57789;53.868;10.728;2023-06-24T14:15:11;4.40;;;3.73;;
70367;SDS011;57789;53.868;10.728;2023-06-24T14:17:37;5.60;;;3.93;;
70367;SDS011;57789;53.868;10.728;2023-06-24T14:20:03;5.83;;;4.47;;
70367;SDS011;57789;53.868;10.728;2023-06-24T14:22:29;4.80;;;3.20;;
70367;SDS011;57789;53.868;10.728;2023-06-24T14:24:55;6.60;;;4.07;;
70367;SDS011;57789;53.868;10.728;2023-06-24T14:27:21;6.30;;;3.00;;
70367;SDS011;57789;53.868;10.728;2023-06-24T14:29:47;3.63;;;3.33;;
70367;SDS011;57789;53.868;10.728;2023-06-24T14:32:13;4.47;;;2.83;;
70367;SDS011;57789;53.868;10.728;2023-06-24T14:34:39;7.80;;;3.30;;
70367;SDS011;57789;53.868;10.728;2023-06-24T14:37:05;4.50;;;3.57;;
70367;SDS011;57789;53.868;10.728;2023-06-24T14:39:31;8.87;;;6.00;;
70367;SDS011;57789;53.868;10.728;2023-06-24T14:41:57;4.90;;;2.90;;
70367;SDS011;57789;53.868;10.728;2023-06-24T14:44:23;3.53;;;3.10;;
70367;SDS011;57789;53.868;10.728;2023-06-24T14:46:49;6.00;;;4.03;;
70367;SDS011;57789;53.868;10.728;2023-06-24T14:49:14;4.93;;;2.73;;
70367;SDS011;57789;53.868;10.728;2023-06-24T14:51:41;5.67;;;3.70;;
70367;SDS011;57789;53.868;10.728;2023-06-24T14:54:50;5.47;;;3.20;;
70367;SDS011;57789;53.868;10.728;2023-06-24T14:57:18;3.93;;;3.13;;
70367;SDS011;57789;53.868;10.728;2023-06-24T14:59:44;5.00;;;3.60;;
70367;SDS011;57789;53.868;10.728;2023-06-24T15:02:09;3.80;;;3.40;;
70367;SDS011;57789;53.868;10.728;2023-06-24T15:04:35;3.60;;;3.30;;
70367;SDS011;57789;53.868;10.728;2023-06-24T15:07:01;4.50;;;3.90;;
70367;SDS011;57789;53.868;10.728;2023-06-24T15:09:27;4.27;;;3.40;;